createdAt,value
2017-08-12T00:00:43.948Z,0
2017-08-12T00:01:58.106Z,0
2017-08-12T00:02:59.992Z,0
2017-08-12T00:04:01.881Z,0
2017-08-12T00:05:03.765Z,0
2017-08-12T00:06:05.593Z,0
2017-08-12T00:07:07.409Z,0
2017-08-12T00:08:09.303Z,0
2017-08-12T00:09:11.192Z,0
2017-08-12T00:10:13.088Z,0
2017-08-12T00:11:27.247Z,0
2017-08-12T00:12:29.131Z,0
2017-08-12T00:13:31.044Z,0
2017-08-12T00:14:32.911Z,0
2017-08-12T00:15:34.733Z,0
2017-08-12T00:16:36.565Z,0
2017-08-12T00:17:38.449Z,0
2017-08-12T00:18:40.340Z,0
2017-08-12T00:19:42.225Z,0
2017-08-12T00:20:56.383Z,0
2017-08-12T00:21:58.269Z,0
2017-08-12T00:23:00.158Z,0
2017-08-12T00:24:02.040Z,0
2017-08-12T00:25:03.862Z,0
2017-08-12T00:26:05.683Z,0
2017-08-12T00:27:07.569Z,0
2017-08-12T00:28:09.456Z,0
2017-08-12T00:29:11.350Z,0
2017-08-12T00:30:25.508Z,0
2017-08-12T00:31:27.393Z,0
2017-08-12T00:32:29.289Z,0
2017-08-12T00:33:31.174Z,0
2017-08-12T00:34:33.004Z,0
2017-08-12T00:35:34.836Z,0
2017-08-12T00:36:36.720Z,0
2017-08-12T00:37:38.608Z,0
2017-08-12T00:38:40.494Z,0
2017-08-12T00:39:54.650Z,0
2017-08-12T00:40:56.537Z,0
2017-08-12T00:41:58.427Z,0
2017-08-12T00:43:00.308Z,0
2017-08-12T00:44:02.130Z,0
2017-08-12T00:45:03.961Z,0
2017-08-12T00:46:05.848Z,0
2017-08-12T00:47:07.733Z,0
2017-08-12T00:48:09.630Z,0
2017-08-12T00:49:23.816Z,0
2017-08-12T00:50:25.698Z,0
2017-08-12T00:51:27.587Z,0
2017-08-12T00:52:29.468Z,0
2017-08-12T00:53:31.300Z,0
2017-08-12T00:54:33.132Z,0
2017-08-12T00:55:35.016Z,0
2017-08-12T00:56:36.902Z,0
2017-08-12T00:57:38.788Z,0
2017-08-12T00:58:52.947Z,0
2017-08-12T00:59:54.832Z,0
2017-08-12T01:00:56.722Z,0
2017-08-12T01:01:58.619Z,0
2017-08-12T01:03:00.440Z,0
2017-08-12T01:04:02.271Z,0
2017-08-12T01:05:04.158Z,0
2017-08-12T01:06:06.045Z,0
2017-08-12T01:07:07.931Z,0
2017-08-12T01:08:22.087Z,0
2017-08-12T01:09:23.974Z,0
2017-08-12T01:10:25.862Z,0
2017-08-12T01:11:27.747Z,0
2017-08-12T01:12:29.567Z,0
2017-08-12T01:13:31.395Z,0
2017-08-12T01:14:33.292Z,0
2017-08-12T01:15:35.181Z,0
2017-08-12T01:16:37.078Z,0
2017-08-12T01:17:51.235Z,0
2017-08-12T01:18:53.118Z,0
2017-08-12T01:19:55.007Z,0
2017-08-12T01:20:56.891Z,0
2017-08-12T01:21:58.711Z,0
2017-08-12T01:23:00.543Z,0
2017-08-12T01:24:02.389Z,0
2017-08-12T01:25:04.209Z,0
2017-08-12T01:26:06.056Z,0
2017-08-12T01:27:20.213Z,0
2017-08-12T01:28:22.094Z,0
2017-08-12T01:29:23.990Z,0
2017-08-12T01:30:25.876Z,0
2017-08-12T01:31:27.710Z,0
2017-08-12T01:32:29.541Z,0
2017-08-12T01:33:31.427Z,0
2017-08-12T01:34:33.314Z,0
2017-08-12T01:35:35.159Z,0
2017-08-12T01:36:49.326Z,0
2017-08-12T01:37:51.211Z,0
2017-08-12T01:38:53.109Z,0
2017-08-12T01:39:54.995Z,0
2017-08-12T01:40:56.813Z,0
2017-08-12T01:41:58.632Z,0
2017-08-12T01:43:00.518Z,0
2017-08-12T01:44:02.404Z,0
2017-08-12T01:45:04.289Z,0
2017-08-12T01:46:18.447Z,0
2017-08-12T01:47:20.330Z,0
2017-08-12T01:48:22.215Z,0
2017-08-12T01:49:24.110Z,0
2017-08-12T01:50:25.926Z,0
2017-08-12T01:51:27.749Z,0
2017-08-12T01:52:29.637Z,0
2017-08-12T01:53:31.516Z,0
2017-08-12T01:54:33.407Z,0
2017-08-12T01:55:47.557Z,0
2017-08-12T01:56:49.451Z,0
2017-08-12T01:57:51.334Z,0
2017-08-12T01:58:53.229Z,0
2017-08-12T01:59:55.058Z,0
2017-08-12T02:00:56.877Z,0
2017-08-12T02:01:58.770Z,0
2017-08-12T02:03:00.654Z,0
2017-08-12T02:04:02.535Z,0
2017-08-12T02:05:16.696Z,0
2017-08-12T02:06:18.589Z,0
2017-08-12T02:07:20.474Z,0
2017-08-12T02:08:22.356Z,0
2017-08-12T02:09:24.184Z,0
2017-08-12T02:10:26.003Z,0
2017-08-12T02:11:27.895Z,0
2017-08-12T02:12:29.781Z,0
2017-08-12T02:13:31.673Z,0
2017-08-12T02:14:45.837Z,0
2017-08-12T02:15:47.730Z,0
2017-08-12T02:16:49.616Z,0
2017-08-12T02:17:51.500Z,0
2017-08-12T02:18:53.317Z,0
2017-08-12T02:19:55.135Z,0
2017-08-12T02:20:57.017Z,0
2017-08-12T02:21:58.909Z,0
2017-08-12T02:23:00.799Z,0
2017-08-12T02:24:14.961Z,0
2017-08-12T02:25:16.839Z,0
2017-08-12T02:26:18.723Z,0
2017-08-12T02:27:20.602Z,0
2017-08-12T02:28:22.424Z,0
2017-08-12T02:29:24.243Z,0
2017-08-12T02:30:26.123Z,0
2017-08-12T02:31:28.011Z,0
2017-08-12T02:32:29.905Z,0
2017-08-12T02:33:44.056Z,0
2017-08-12T02:34:45.939Z,0
2017-08-12T02:35:47.823Z,0
2017-08-12T02:36:49.708Z,0
2017-08-12T02:37:51.525Z,0
2017-08-12T02:38:53.544Z,0
2017-08-12T02:39:55.424Z,0
2017-08-12T02:40:57.318Z,0
2017-08-12T02:41:59.203Z,0
2017-08-12T02:43:13.355Z,0
2017-08-12T02:44:15.233Z,0
2017-08-12T02:45:17.113Z,0
2017-08-12T02:46:19.004Z,0
2017-08-12T02:47:20.823Z,0
2017-08-12T02:48:22.645Z,0
2017-08-12T02:49:24.525Z,0
2017-08-12T02:50:26.417Z,0
2017-08-12T02:51:28.295Z,0
2017-08-12T02:52:42.456Z,0
2017-08-12T02:53:44.333Z,0
2017-08-12T02:54:46.216Z,0
2017-08-12T02:55:48.095Z,0
2017-08-12T02:56:49.915Z,0
2017-08-12T02:57:51.736Z,0
2017-08-12T02:58:53.623Z,0
2017-08-12T02:59:55.513Z,0
2017-08-12T03:00:57.391Z,0
2017-08-12T03:02:11.553Z,0
2017-08-12T03:03:13.442Z,0
2017-08-12T03:04:15.323Z,0
2017-08-12T03:05:17.204Z,0
2017-08-12T03:06:19.020Z,0
2017-08-12T03:07:20.850Z,0
2017-08-12T03:08:22.730Z,0
2017-08-12T03:09:24.609Z,0
2017-08-12T03:10:26.485Z,0
2017-08-12T03:11:40.637Z,0
2017-08-12T03:12:42.525Z,0
2017-08-12T03:13:44.410Z,0
2017-08-12T03:14:46.289Z,0
2017-08-12T03:15:48.107Z,4
2017-08-12T03:16:49.930Z,4
2017-08-12T03:17:51.804Z,4
2017-08-12T03:18:53.685Z,4
2017-08-12T03:19:55.572Z,4
2017-08-12T03:21:09.724Z,8
2017-08-12T03:22:11.612Z,12
2017-08-12T03:23:13.504Z,12
2017-08-12T03:24:15.384Z,20
2017-08-12T03:25:17.212Z,28
2017-08-12T03:26:19.033Z,32
2017-08-12T03:27:20.924Z,32
2017-08-12T03:28:22.807Z,40
2017-08-12T03:29:24.685Z,44
2017-08-12T03:30:38.839Z,56
2017-08-12T03:31:40.714Z,64
2017-08-12T03:32:42.598Z,72
2017-08-12T03:33:44.489Z,84
2017-08-12T03:34:46.307Z,96
2017-08-12T03:35:48.142Z,108
2017-08-12T03:36:50.033Z,120
2017-08-12T03:37:51.916Z,132
2017-08-12T03:38:53.800Z,148
2017-08-12T03:40:07.965Z,164
2017-08-12T03:41:09.845Z,176
2017-08-12T03:42:11.728Z,192
2017-08-12T03:43:13.619Z,204
2017-08-12T03:44:15.439Z,220
2017-08-12T03:45:17.261Z,236
2017-08-12T03:46:19.153Z,252
2017-08-12T03:47:21.036Z,272
2017-08-12T03:48:22.921Z,292
2017-08-12T03:49:37.076Z,312
2017-08-12T03:50:38.956Z,332
2017-08-12T03:51:40.840Z,352
2017-08-12T03:52:42.731Z,376
2017-08-12T03:53:44.558Z,396
2017-08-12T03:54:46.379Z,420
2017-08-12T03:55:48.261Z,444
2017-08-12T03:56:50.140Z,468
2017-08-12T03:57:52.033Z,496
2017-08-12T03:59:06.200Z,536
2017-08-12T04:00:08.079Z,572
2017-08-12T04:01:09.973Z,620
2017-08-12T04:02:11.854Z,660
2017-08-12T04:03:13.686Z,696
2017-08-12T04:04:15.507Z,740
2017-08-12T04:05:17.398Z,800
2017-08-12T04:06:19.284Z,872
2017-08-12T04:07:21.175Z,924
2017-08-12T04:08:35.338Z,956
2017-08-12T04:09:37.221Z,1000
2017-08-12T04:10:39.105Z,1064
2017-08-12T04:11:40.999Z,1088
2017-08-12T04:12:42.822Z,1120
2017-08-12T04:13:44.643Z,1180
2017-08-12T04:14:46.536Z,1240
2017-08-12T04:15:48.431Z,1304
2017-08-12T04:16:50.312Z,1356
2017-08-12T04:18:04.481Z,1380
2017-08-12T04:19:06.363Z,1384
2017-08-12T04:20:08.248Z,1420
2017-08-12T04:21:10.130Z,1476
2017-08-12T04:22:11.964Z,1548
2017-08-12T04:23:13.785Z,1680
2017-08-12T04:24:15.681Z,1716
2017-08-12T04:25:17.568Z,1716
2017-08-12T04:26:19.447Z,1732
2017-08-12T04:27:33.666Z,1720
2017-08-12T04:28:35.549Z,1720
2017-08-12T04:29:37.433Z,1744
2017-08-12T04:30:39.316Z,1792
2017-08-12T04:31:41.149Z,1840
2017-08-12T04:32:42.972Z,1864
2017-08-12T04:33:44.866Z,1904
2017-08-12T04:34:46.759Z,1936
2017-08-12T04:35:48.639Z,1984
2017-08-12T04:37:02.810Z,2040
2017-08-12T04:38:04.686Z,2032
2017-08-12T04:39:06.575Z,2100
2017-08-12T04:40:08.457Z,2224
2017-08-12T04:41:10.293Z,2220
2017-08-12T04:42:12.128Z,2176
2017-08-12T04:43:14.020Z,2140
2017-08-12T04:44:15.918Z,2140
2017-08-12T04:45:17.800Z,2176
2017-08-12T04:46:32.016Z,2312
2017-08-12T04:47:33.897Z,2476
2017-08-12T04:48:35.790Z,2496
2017-08-12T04:49:37.686Z,2496
2017-08-12T04:50:39.512Z,2620
2017-08-12T04:51:41.336Z,2632
2017-08-12T04:52:43.218Z,2892
2017-08-12T04:53:45.104Z,2956
2017-08-12T04:54:46.986Z,2944
2017-08-12T04:56:01.152Z,3216
2017-08-12T04:57:03.034Z,3528
2017-08-12T04:58:04.930Z,3184
2017-08-12T04:59:06.811Z,4932
2017-08-12T05:00:08.636Z,3568
2017-08-12T05:01:10.458Z,4428
2017-08-12T05:02:12.354Z,8740
2017-08-12T05:03:14.238Z,4416
2017-08-12T05:04:16.132Z,3632
2017-08-12T05:05:30.288Z,6932
2017-08-12T05:06:32.169Z,3704
2017-08-12T05:07:34.070Z,5064
2017-08-12T05:08:35.955Z,5920
2017-08-12T05:09:37.776Z,7636
2017-08-12T05:10:39.603Z,6912
2017-08-12T05:11:41.495Z,4840
2017-08-12T05:12:43.382Z,4304
2017-08-12T05:13:45.265Z,3540
2017-08-12T05:14:59.427Z,2716
2017-08-12T05:16:01.305Z,2480
2017-08-12T05:17:03.192Z,2088
2017-08-12T05:18:05.089Z,1868
2017-08-12T05:19:06.910Z,2252
2017-08-12T05:20:08.735Z,2996
2017-08-12T05:21:10.618Z,3516
2017-08-12T05:22:12.509Z,2880
2017-08-12T05:23:14.390Z,2568
2017-08-12T05:24:28.548Z,2244
2017-08-12T05:25:30.444Z,2364
2017-08-12T05:26:32.330Z,2728
2017-08-12T05:27:34.216Z,3072
2017-08-12T05:28:36.039Z,3248
2017-08-12T05:29:37.871Z,2956
2017-08-12T05:30:39.753Z,2776
2017-08-12T05:31:41.648Z,2568
2017-08-12T05:32:43.530Z,2668
2017-08-12T05:33:57.690Z,2660
2017-08-12T05:34:59.592Z,2664
2017-08-12T05:36:01.468Z,2852
2017-08-12T05:37:03.352Z,3164
2017-08-12T05:38:05.186Z,3668
2017-08-12T05:39:07.016Z,4192
2017-08-12T05:40:08.898Z,4316
2017-08-12T05:41:10.784Z,4324
2017-08-12T05:42:12.665Z,4836
2017-08-12T05:43:26.834Z,4944
2017-08-12T05:44:28.726Z,5108
2017-08-12T05:45:30.612Z,5840
2017-08-12T05:46:32.496Z,5620
2017-08-12T05:47:34.320Z,5144
2017-08-12T05:48:36.145Z,5528
2017-08-12T05:49:38.027Z,6436
2017-08-12T05:50:39.922Z,7048
2017-08-12T05:51:41.809Z,7148
2017-08-12T05:52:56.015Z,6632
2017-08-12T05:53:57.899Z,5612
2017-08-12T05:54:59.793Z,5308
2017-08-12T05:56:01.690Z,6716
2017-08-12T05:57:03.516Z,8308
2017-08-12T05:58:05.340Z,9408
2017-08-12T05:59:07.235Z,8584
2017-08-12T06:00:09.131Z,7548
2017-08-12T06:01:11.018Z,7656
2017-08-12T06:02:25.174Z,6840
2017-08-12T06:03:27.059Z,6160
2017-08-12T06:04:28.949Z,6260
2017-08-12T06:05:30.833Z,6116
2017-08-12T06:06:32.669Z,5020
2017-08-12T06:07:34.495Z,3872
2017-08-12T06:08:36.378Z,3644
2017-08-12T06:09:38.275Z,3648
2017-08-12T06:10:40.157Z,3728
2017-08-12T06:11:54.329Z,3944
2017-08-12T06:12:56.209Z,4316
2017-08-12T06:13:58.105Z,4456
2017-08-12T06:14:59.990Z,4664
2017-08-12T06:16:01.814Z,4968
2017-08-12T06:17:03.640Z,5136
2017-08-12T06:18:05.536Z,5452
2017-08-12T06:19:07.433Z,6208
2017-08-12T06:20:09.319Z,6720
2017-08-12T06:21:23.476Z,7216
2017-08-12T06:22:25.359Z,7480
2017-08-12T06:23:27.254Z,7056
2017-08-12T06:24:29.138Z,7624
2017-08-12T06:25:30.964Z,9320
2017-08-12T06:26:32.790Z,10492
2017-08-12T06:27:34.673Z,11424
2017-08-12T06:28:36.561Z,10608
2017-08-12T06:29:38.448Z,10592
2017-08-12T06:30:52.606Z,9816
2017-08-12T06:31:54.491Z,8512
2017-08-12T06:32:56.381Z,7716
2017-08-12T06:33:58.268Z,6752
2017-08-12T06:35:00.093Z,6348
2017-08-12T06:36:01.916Z,6568
2017-08-12T06:37:03.802Z,7136
2017-08-12T06:38:05.686Z,6904
2017-08-12T06:39:07.572Z,6580
2017-08-12T06:40:21.731Z,6516
2017-08-12T06:41:23.617Z,6504
2017-08-12T06:42:25.504Z,6568
2017-08-12T06:43:27.404Z,6020
2017-08-12T06:44:29.228Z,5832
2017-08-12T06:45:31.066Z,6460
2017-08-12T06:46:32.950Z,6324
2017-08-12T06:47:34.847Z,6236
2017-08-12T06:48:36.733Z,5960
2017-08-12T06:49:50.893Z,4828
2017-08-12T06:50:52.789Z,4600
2017-08-12T06:51:54.685Z,5352
2017-08-12T06:52:56.575Z,6720
2017-08-12T06:53:58.401Z,7692
2017-08-12T06:55:00.228Z,8020
2017-08-12T06:56:02.112Z,7864
2017-08-12T06:57:03.998Z,7584
2017-08-12T06:58:05.881Z,7040
2017-08-12T06:59:20.098Z,6148
2017-08-12T07:00:21.980Z,5468
2017-08-12T07:01:23.876Z,4764
2017-08-12T07:02:25.765Z,4464
2017-08-12T07:03:27.586Z,4328
2017-08-12T07:04:29.422Z,4160
2017-08-12T07:05:31.306Z,4056
2017-08-12T07:06:33.197Z,4080
2017-08-12T07:07:35.077Z,3964
2017-08-12T07:08:49.248Z,3860
2017-08-12T07:09:51.131Z,3980
2017-08-12T07:10:53.018Z,4148
2017-08-12T07:11:54.912Z,4488
2017-08-12T07:12:56.737Z,5084
2017-08-12T07:13:58.578Z,5816
2017-08-12T07:15:00.461Z,6344
2017-08-12T07:16:02.349Z,6160
2017-08-12T07:17:04.233Z,5644
2017-08-12T07:18:18.392Z,5660
2017-08-12T07:19:20.275Z,5784
2017-08-12T07:20:22.163Z,5612
2017-08-12T07:21:24.048Z,5220
2017-08-12T07:22:25.873Z,4824
2017-08-12T07:23:27.700Z,4532
2017-08-12T07:24:29.586Z,4232
2017-08-12T07:25:31.472Z,4008
2017-08-12T07:26:33.357Z,4052
2017-08-12T07:27:47.513Z,4044
2017-08-12T07:28:49.396Z,4084
2017-08-12T07:29:51.290Z,3960
2017-08-12T07:30:53.185Z,3880
2017-08-12T07:31:55.024Z,3964
2017-08-12T07:32:56.853Z,4348
2017-08-12T07:33:58.735Z,5292
2017-08-12T07:35:00.637Z,6560
2017-08-12T07:36:02.520Z,7136
2017-08-12T07:37:16.680Z,7884
2017-08-12T07:38:18.574Z,9100
2017-08-12T07:39:20.462Z,9676
2017-08-12T07:40:22.355Z,9356
2017-08-12T07:41:24.192Z,9640
2017-08-12T07:42:26.017Z,10508
2017-08-12T07:43:27.984Z,10880
2017-08-12T07:44:29.866Z,10600
2017-08-12T07:45:31.750Z,10244
2017-08-12T07:46:45.912Z,8628
2017-08-12T07:47:47.796Z,7260
2017-08-12T07:48:49.685Z,6244
2017-08-12T07:49:51.574Z,5792
2017-08-12T07:50:53.407Z,5780
2017-08-12T07:51:55.225Z,5728
2017-08-12T07:52:57.120Z,6296
2017-08-12T07:53:59.009Z,7540
2017-08-12T07:55:00.904Z,8192
2017-08-12T07:56:15.077Z,9052
2017-08-12T07:57:16.958Z,9112
2017-08-12T07:58:18.859Z,7712
2017-08-12T07:59:20.762Z,6320
2017-08-12T08:00:22.599Z,5980
2017-08-12T08:01:24.446Z,6388
2017-08-12T08:02:26.312Z,7168
2017-08-12T08:03:28.205Z,7840
2017-08-12T08:04:30.084Z,8876
2017-08-12T08:05:44.246Z,11540
2017-08-12T08:06:46.146Z,13708
2017-08-12T08:07:48.058Z,14752
2017-08-12T08:08:49.929Z,15380
2017-08-12T08:09:51.757Z,15504
2017-08-12T08:10:53.583Z,14044
2017-08-12T08:11:55.470Z,12964
2017-08-12T08:12:57.700Z,13064
2017-08-12T08:13:59.524Z,14300
2017-08-12T08:15:13.700Z,15500
2017-08-12T08:16:15.594Z,15988
2017-08-12T08:17:17.490Z,16084
2017-08-12T08:18:19.379Z,15540
2017-08-12T08:19:21.227Z,14208
2017-08-12T08:20:23.053Z,12068
2017-08-12T08:21:24.942Z,11268
2017-08-12T08:22:26.834Z,11364
2017-08-12T08:23:28.722Z,12716
2017-08-12T08:24:42.884Z,14768
2017-08-12T08:25:44.771Z,15276
2017-08-12T08:26:46.664Z,14700
2017-08-12T08:27:48.554Z,14440
2017-08-12T08:28:50.461Z,15048
2017-08-12T08:29:52.310Z,15112
2017-08-12T08:30:54.196Z,14092
2017-08-12T08:31:56.087Z,13748
2017-08-12T08:32:58.021Z,14036
2017-08-12T08:34:12.161Z,14084
2017-08-12T08:35:14.053Z,13212
2017-08-12T08:36:15.997Z,12112
2017-08-12T08:37:17.901Z,11048
2017-08-12T08:38:19.738Z,10892
2017-08-12T08:39:21.574Z,11032
2017-08-12T08:40:23.502Z,11144
2017-08-12T08:41:25.757Z,11872
2017-08-12T08:42:27.629Z,12908
2017-08-12T08:43:41.797Z,13584
2017-08-12T08:44:43.686Z,14232
2017-08-12T08:45:45.594Z,14964
2017-08-12T08:46:47.483Z,15220
2017-08-12T08:47:49.314Z,15276
2017-08-12T08:48:51.155Z,15340
2017-08-12T08:49:53.042Z,15088
2017-08-12T08:50:54.930Z,14320
2017-08-12T08:51:56.820Z,14244
2017-08-12T08:53:11.013Z,13896
2017-08-12T08:54:12.901Z,13460
2017-08-12T08:55:14.791Z,13228
2017-08-12T08:56:16.681Z,12564
2017-08-12T08:57:18.508Z,11844
2017-08-12T08:58:20.337Z,11188
2017-08-12T08:59:22.228Z,10080
2017-08-12T09:00:24.115Z,7988
2017-08-12T09:01:26.027Z,6540
2017-08-12T09:02:40.174Z,5964
2017-08-12T09:03:42.077Z,7360
2017-08-12T09:04:43.966Z,9428
2017-08-12T09:05:45.888Z,9836
2017-08-12T09:06:47.717Z,9156
2017-08-12T09:07:49.539Z,8504
2017-08-12T09:08:51.432Z,8688
2017-08-12T09:09:53.322Z,9852
2017-08-12T09:10:55.209Z,10200
2017-08-12T09:12:09.395Z,9812
2017-08-12T09:13:11.304Z,8652
2017-08-12T09:14:13.189Z,7344
2017-08-12T09:15:15.102Z,7088
2017-08-12T09:16:16.934Z,7760
2017-08-12T09:17:18.760Z,8656
2017-08-12T09:18:20.650Z,8800
2017-08-12T09:19:22.541Z,8512
2017-08-12T09:20:24.458Z,8460
2017-08-12T09:21:38.629Z,9164
2017-08-12T09:22:40.516Z,10192
2017-08-12T09:23:42.423Z,11876
2017-08-12T09:24:44.307Z,13468
2017-08-12T09:25:46.154Z,14128
2017-08-12T09:26:47.980Z,14792
2017-08-12T09:27:50.147Z,14452
2017-08-12T09:28:52.014Z,13924
2017-08-12T09:29:53.906Z,13224
2017-08-12T09:31:08.068Z,12468
2017-08-12T09:32:09.957Z,12512
2017-08-12T09:33:11.848Z,13184
2017-08-12T09:34:13.735Z,14448
2017-08-12T09:35:15.565Z,13960
2017-08-12T09:36:17.391Z,11836
2017-08-12T09:37:19.289Z,9896
2017-08-12T09:38:21.191Z,8504
2017-08-12T09:39:23.088Z,7420
2017-08-12T09:40:37.229Z,6456
2017-08-12T09:41:39.129Z,6104
2017-08-12T09:42:41.027Z,5696
2017-08-12T09:43:42.909Z,5472
2017-08-12T09:44:44.766Z,5756
2017-08-12T09:45:46.577Z,5932
2017-08-12T09:46:48.468Z,5560
2017-08-12T09:47:50.379Z,5360
2017-08-12T09:48:52.268Z,5488
2017-08-12T09:50:06.443Z,5512
2017-08-12T09:51:08.333Z,5416
2017-08-12T09:52:10.234Z,5096
2017-08-12T09:53:12.113Z,4636
2017-08-12T09:54:13.969Z,4184
2017-08-12T09:55:15.827Z,3772
2017-08-12T09:56:17.750Z,3512
2017-08-12T09:57:19.636Z,3428
2017-08-12T09:58:21.522Z,3444
2017-08-12T09:59:35.683Z,3428
2017-08-12T10:00:37.574Z,3420
2017-08-12T10:01:39.471Z,3516
2017-08-12T10:02:41.363Z,3576
2017-08-12T10:03:43.185Z,3592
2017-08-12T10:04:45.016Z,3600
2017-08-12T10:05:46.934Z,3812
2017-08-12T10:06:48.798Z,4104
2017-08-12T10:07:50.681Z,4384
2017-08-12T10:09:04.859Z,4780
2017-08-12T10:10:06.745Z,5168
2017-08-12T10:11:08.635Z,5492
2017-08-12T10:12:10.523Z,5720
2017-08-12T10:13:12.360Z,5864
2017-08-12T10:14:14.177Z,5876
2017-08-12T10:15:16.065Z,5896
2017-08-12T10:16:17.947Z,5784
2017-08-12T10:17:19.843Z,5404
2017-08-12T10:18:34.019Z,5536
2017-08-12T10:19:35.919Z,5876
2017-08-12T10:20:37.794Z,5968
2017-08-12T10:21:39.689Z,5956
2017-08-12T10:22:41.514Z,5904
2017-08-12T10:23:43.346Z,5996
2017-08-12T10:24:45.237Z,5988
2017-08-12T10:25:47.128Z,5636
2017-08-12T10:26:49.014Z,5372
2017-08-12T10:28:03.177Z,6012
2017-08-12T10:29:05.074Z,7048
2017-08-12T10:30:06.964Z,8184
2017-08-12T10:31:08.860Z,9188
2017-08-12T10:32:10.686Z,10256
2017-08-12T10:33:12.516Z,11572
2017-08-12T10:34:14.403Z,12556
2017-08-12T10:35:16.291Z,12584
2017-08-12T10:36:18.183Z,12200
2017-08-12T10:37:32.433Z,11628
2017-08-12T10:38:34.321Z,11212
2017-08-12T10:39:36.208Z,11244
2017-08-12T10:40:38.097Z,11348
2017-08-12T10:41:39.926Z,11568
2017-08-12T10:42:41.755Z,12108
2017-08-12T10:43:43.644Z,13076
2017-08-12T10:44:45.537Z,14484
2017-08-12T10:45:47.422Z,15832
2017-08-12T10:47:01.584Z,17280
2017-08-12T10:48:03.477Z,17920
2017-08-12T10:49:05.367Z,17984
2017-08-12T10:50:07.273Z,17856
2017-08-12T10:51:09.114Z,17536
2017-08-12T10:52:10.936Z,16864
2017-08-12T10:53:12.829Z,15288
2017-08-12T10:54:14.760Z,13628
2017-08-12T10:55:16.651Z,12120
2017-08-12T10:56:31.106Z,11344
2017-08-12T10:57:32.985Z,11544
2017-08-12T10:58:34.882Z,13008
2017-08-12T10:59:36.797Z,15240
2017-08-12T11:00:38.639Z,17408
2017-08-12T11:01:40.468Z,18336
2017-08-12T11:02:42.362Z,18944
2017-08-12T11:03:44.259Z,19392
2017-08-12T11:04:46.139Z,19232
2017-08-12T11:06:00.319Z,18560
2017-08-12T11:07:02.205Z,17632
2017-08-12T11:08:04.095Z,15880
2017-08-12T11:09:05.996Z,14792
2017-08-12T11:10:07.841Z,13924
2017-08-12T11:11:09.732Z,12524
2017-08-12T11:12:11.950Z,10628
2017-08-12T11:13:13.900Z,9236
2017-08-12T11:14:15.845Z,8708
2017-08-12T11:15:30.153Z,7972
2017-08-12T11:16:32.121Z,7344
2017-08-12T11:17:34.095Z,7332
2017-08-12T11:18:36.093Z,7772
2017-08-12T11:19:38.033Z,7432
2017-08-12T11:20:39.908Z,6924
2017-08-12T11:21:41.902Z,6520
2017-08-12T11:22:43.891Z,6388
2017-08-12T11:23:46.103Z,6204
2017-08-12T11:25:00.315Z,5992
2017-08-12T11:26:02.554Z,5852
2017-08-12T11:27:04.448Z,5668
2017-08-12T11:28:06.338Z,5488
2017-08-12T11:29:08.442Z,5296
2017-08-12T11:30:10.279Z,5144
2017-08-12T11:31:12.406Z,5008
2017-08-12T11:32:14.770Z,4956
2017-08-12T11:33:16.688Z,4940
2017-08-12T11:34:30.888Z,4920
2017-08-12T11:35:32.780Z,4876
2017-08-12T11:36:34.693Z,4916
2017-08-12T11:37:36.574Z,5016
2017-08-12T11:38:38.418Z,5132
2017-08-12T11:39:40.320Z,5272
2017-08-12T11:40:42.225Z,5480
2017-08-12T11:41:44.122Z,5496
2017-08-12T11:42:46.516Z,5416
2017-08-12T11:44:00.708Z,5648
2017-08-12T11:45:02.622Z,5920
2017-08-12T11:46:04.520Z,6084
2017-08-12T11:47:06.682Z,6216
2017-08-12T11:48:08.525Z,6320
2017-08-12T11:49:11.063Z,6456
2017-08-12T11:50:13.064Z,6548
2017-08-12T11:51:15.112Z,6584
2017-08-12T11:52:17.201Z,6684
2017-08-12T11:53:31.799Z,6608
2017-08-12T11:54:34.030Z,6520
2017-08-12T11:55:36.054Z,6344
2017-08-12T11:56:38.038Z,6024
2017-08-12T11:57:39.874Z,5792
2017-08-12T11:58:41.703Z,5716
2017-08-12T11:59:43.597Z,5708
2017-08-12T12:01:48.335Z,5776
2017-08-12T12:03:02.504Z,5984
2017-08-12T12:04:04.390Z,6356
2017-08-12T12:05:06.277Z,6668
2017-08-12T12:06:08.163Z,6812
2017-08-12T12:07:09.997Z,6864
2017-08-12T12:08:11.826Z,6868
2017-08-12T12:09:13.712Z,6556
2017-08-12T12:10:15.601Z,6608
2017-08-12T12:11:17.486Z,6656
2017-08-12T12:12:31.646Z,6908
2017-08-12T12:13:33.544Z,7284
2017-08-12T12:14:35.433Z,7552
2017-08-12T12:15:37.317Z,7732
2017-08-12T12:16:39.159Z,7828
2017-08-12T12:17:40.984Z,8208
2017-08-12T12:18:42.867Z,8856
2017-08-12T12:19:44.771Z,9380
2017-08-12T12:20:46.662Z,9676
2017-08-12T12:22:00.826Z,10220
2017-08-12T12:23:02.717Z,10764
2017-08-12T12:24:04.606Z,11520
2017-08-12T12:25:06.507Z,12672
2017-08-12T12:26:08.326Z,13604
2017-08-12T12:27:10.157Z,14252
2017-08-12T12:28:12.048Z,14268
2017-08-12T12:29:13.936Z,14132
2017-08-12T12:30:15.823Z,13940
2017-08-12T12:31:30.006Z,14276
2017-08-12T12:32:31.900Z,14876
2017-08-12T12:33:33.786Z,15712
2017-08-12T12:34:35.679Z,16364
2017-08-12T12:35:37.509Z,16460
2017-08-12T12:36:39.343Z,16192
2017-08-12T12:37:41.232Z,15584
2017-08-12T12:38:43.129Z,14780
2017-08-12T12:39:45.014Z,14984
2017-08-12T12:40:59.193Z,15508
2017-08-12T12:42:01.087Z,15448
2017-08-12T12:43:02.988Z,14852
2017-08-12T12:44:04.869Z,13864
2017-08-12T12:45:06.702Z,12764
2017-08-12T12:46:08.534Z,11744
2017-08-12T12:47:10.424Z,10696
2017-08-12T12:48:12.313Z,9600
2017-08-12T12:49:14.200Z,8496
2017-08-12T12:50:28.359Z,7384
2017-08-12T12:51:30.243Z,6592
2017-08-12T12:52:32.173Z,5824
2017-08-12T12:53:34.041Z,5200
2017-08-12T12:54:35.874Z,4584
2017-08-12T12:55:37.704Z,3988
2017-08-12T12:56:39.586Z,3484
2017-08-12T12:57:41.486Z,3116
2017-08-12T12:58:43.368Z,2828
2017-08-12T12:59:57.540Z,2588
2017-08-12T13:00:59.424Z,2500
2017-08-12T13:02:01.310Z,2468
2017-08-12T13:03:03.200Z,2464
2017-08-12T13:04:05.023Z,2464
2017-08-12T13:05:06.850Z,2528
2017-08-12T13:06:08.736Z,2624
2017-08-12T13:07:10.624Z,2776
2017-08-12T13:08:12.508Z,3024
2017-08-12T13:09:26.676Z,3284
2017-08-12T13:10:28.554Z,3504
2017-08-12T13:11:30.440Z,3816
2017-08-12T13:12:32.349Z,4168
2017-08-12T13:13:34.215Z,4628
2017-08-12T13:14:36.048Z,5208
2017-08-12T13:15:37.938Z,5932
2017-08-12T13:16:39.819Z,6768
2017-08-12T13:17:41.705Z,7556
2017-08-12T13:18:55.866Z,8764
2017-08-12T13:19:57.753Z,10088
2017-08-12T13:20:59.643Z,11140
2017-08-12T13:22:01.531Z,11848
2017-08-12T13:23:03.358Z,12372
2017-08-12T13:24:05.190Z,12824
2017-08-12T13:25:07.076Z,13212
2017-08-12T13:26:08.977Z,13168
2017-08-12T13:27:10.872Z,12664
2017-08-12T13:28:25.026Z,11880
2017-08-12T13:29:26.933Z,11328
2017-08-12T13:30:28.823Z,10992
2017-08-12T13:31:30.712Z,10596
2017-08-12T13:32:32.549Z,10092
2017-08-12T13:33:34.377Z,9856
2017-08-12T13:34:36.275Z,9728
2017-08-12T13:35:38.174Z,9456
2017-08-12T13:36:40.072Z,9216
2017-08-12T13:37:54.226Z,9180
2017-08-12T13:38:56.122Z,9224
2017-08-12T13:39:58.031Z,9208
2017-08-12T13:40:59.909Z,9164
2017-08-12T13:42:01.740Z,9100
2017-08-12T13:43:03.567Z,8992
2017-08-12T13:44:05.467Z,8792
2017-08-12T13:45:07.353Z,8608
2017-08-12T13:46:09.249Z,8540
2017-08-12T13:47:23.419Z,8872
2017-08-12T13:48:25.303Z,9500
2017-08-12T13:49:27.202Z,10256
2017-08-12T13:50:29.096Z,10892
2017-08-12T13:51:30.927Z,11436
2017-08-12T13:52:32.757Z,12164
2017-08-12T13:53:34.661Z,12148
2017-08-12T13:54:36.539Z,11360
2017-08-12T13:55:38.429Z,10364
2017-08-12T13:56:52.607Z,10100
2017-08-12T13:57:54.495Z,10368
2017-08-12T13:58:56.386Z,11008
2017-08-12T13:59:58.279Z,11884
2017-08-12T14:01:00.134Z,12468
2017-08-12T14:02:01.962Z,12504
2017-08-12T14:03:03.861Z,12480
2017-08-12T14:04:05.753Z,12508
2017-08-12T14:05:07.642Z,12380
2017-08-12T14:06:21.803Z,11888
2017-08-12T14:07:23.694Z,11644
2017-08-12T14:08:25.581Z,11396
2017-08-12T14:09:27.484Z,11124
2017-08-12T14:10:29.317Z,10880
2017-08-12T14:11:31.151Z,10624
2017-08-12T14:12:33.041Z,10216
2017-08-12T14:13:34.939Z,9716
2017-08-12T14:14:36.824Z,9228
2017-08-12T14:15:51.000Z,8644
2017-08-12T14:16:52.883Z,8212
2017-08-12T14:17:54.775Z,7816
2017-08-12T14:18:56.693Z,7464